Time;durP1;ratioP1;P1;durP2;ratioP2;P2;SDS_P1;SDS_P2;PMS_P1;PMS_P2;Temp;Humidity;BMP_temperature;BMP_pressure;BME280_temperature;BME280_humidity;BME280_pressure;Samples;Min_cycle;Max_cycle;Signal;HPM_P1;HPM_P2
2023/07/12 00:01:40;;;;;;;10.40;3.70;;;18.90;99.90;;;;;;5124288;28;20074;-83
2023/07/12 00:04:21;;;;;;;8.65;3.80;;;18.90;99.90;;;;;;5093408;28;20044;-82
2023/07/12 00:06:47;;;;;;;5.13;3.50;;;18.70;99.90;;;;;;5106507;28;20054;-85
2023/07/12 00:09:16;;;;;;;5.60;3.38;;;18.80;99.90;;;;;;5086287;28;20039;-84
2023/07/12 00:11:46;;;;;;;5.95;3.42;;;18.80;99.90;;;;;;5103375;28;20036;-83
2023/07/12 00:14:21;;;;;;;7.65;3.75;;;18.80;99.90;;;;;;5123013;28;20036;-82
2023/07/12 00:16:47;;;;;;;5.20;3.08;;;18.80;99.90;;;;;;5119326;28;20036;-82
2023/07/12 00:19:14;;;;;;;8.65;3.42;;;18.80;99.90;;;;;;5112074;28;20093;-83
2023/07/12 00:21:43;;;;;;;7.75;3.38;;;18.80;99.90;;;;;;5123222;28;20507;-83
2023/07/12 00:24:16;;;;;;;10.80;3.67;;;18.80;99.90;;;;;;5121742;28;20063;-83
2023/07/12 00:27:01;;;;;;;;;;;;;;;;;;;;;
2023/07/12 00:29:29;;;;;;;6.57;3.30;;;18.70;99.90;;;;;;5105865;28;20105;-84
2023/07/12 00:31:58;;;;;;;5.32;3.20;;;18.70;99.90;;;;;;5102852;28;20052;-83
2023/07/12 00:34:26;;;;;;;6.63;3.40;;;18.70;99.90;;;;;;5113217;28;20040;-83
2023/07/12 00:37:05;;;;;;;7.18;3.30;;;18.60;99.90;;;;;;5102237;28;20035;-83
2023/07/12 00:39:32;;;;;;;;;;;18.60;99.90;;;;;;5129234;27;20051;-84
2023/07/12 00:42:22;;;;;;;5.05;3.28;;;18.60;99.90;;;;;;5111595;28;19927;-83
2023/07/12 00:44:53;;;;;;;5.47;3.45;;;18.60;99.90;;;;;;5102029;28;20044;-84
2023/07/12 00:47:25;;;;;;;9.15;3.83;;;18.50;99.90;;;;;;5125369;28;20040;-83
2023/07/12 00:49:54;;;;;;;8.10;3.67;;;18.50;99.90;;;;;;5089052;28;20047;-85
2023/07/12 00:52:24;;;;;;;8.98;3.60;;;18.50;99.90;;;;;;5084623;28;20036;-83
2023/07/12 00:55:01;;;;;;;9.25;3.85;;;18.50;99.90;;;;;;5103052;28;20059;-84
2023/07/12 00:57:41;;;;;;;5.32;3.42;;;18.40;99.90;;;;;;5105806;28;20066;-84
2023/07/12 01:00:39;;;;;;;8.45;4.07;;;18.50;99.90;;;;;;5113407;28;20043;-83
2023/07/12 01:03:13;;;;;;;6.22;3.47;;;18.40;99.90;;;;;;5088623;28;20040;-84
2023/07/12 01:06:01;;;;;;;9.43;4.22;;;18.40;99.90;;;;;;5113167;28;20032;-84
2023/07/12 01:09:06;;;;;;;9.00;4.28;;;18.40;99.90;;;;;;5086909;28;20474;-83
2023/07/12 01:11:41;;;;;;;9.25;3.70;;;18.40;99.90;;;;;;5105661;28;20037;-84
2023/07/12 01:14:16;;;;;;;7.30;3.20;;;18.50;99.90;;;;;;5094170;28;20104;-83
2023/07/12 01:16:48;;;;;;;10.90;3.30;;;18.40;99.90;;;;;;5087432;28;20071;-84
2023/07/12 01:19:18;;;;;;;7.25;3.40;;;18.40;99.90;;;;;;5108818;28;20073;-84
2023/07/12 01:21:47;;;;;;;8.75;3.78;;;18.30;99.90;;;;;;5083837;28;20047;-84
2023/07/12 01:24:16;;;;;;;6.22;3.22;;;18.00;99.90;;;;;;5103043;28;20044;-84
2023/07/12 01:26:45;;;;;;;7.50;3.55;;;18.30;99.90;;;;;;5101118;28;20067;-83
2023/07/12 01:29:21;;;;;;;6.60;3.35;;;18.30;99.90;;;;;;5083601;28;20120;-83
2023/07/12 01:31:53;;;;;;;7.63;3.30;;;18.60;99.90;;;;;;5095108;28;20114;-84
2023/07/12 01:34:19;;;;;;;12.25;3.67;;;18.30;99.90;;;;;;5092882;28;20031;-84
2023/07/12 01:36:48;;;;;;;11.20;3.72;;;18.20;99.90;;;;;;5101687;28;20046;-84
2023/07/12 01:39:17;;;;;;;5.93;3.75;;;18.20;99.90;;;;;;5091220;28;20036;-84
2023/07/12 01:41:45;;;;;;;7.28;3.85;;;18.20;99.90;;;;;;5101433;28;20036;-84
2023/07/12 01:44:17;;;;;;;9.77;4.93;;;18.10;99.90;;;;;;5082052;28;20056;-83
2023/07/12 01:46:45;;;;;;;10.70;4.30;;;18.60;99.90;;;;;;5108886;28;20055;-83
2023/07/12 01:49:11;;;;;;;11.98;3.90;;;18.20;99.90;;;;;;5085939;28;20032;-84
2023/07/12 01:51:38;;;;;;;11.82;4.60;;;18.20;99.90;;;;;;5106435;28;20040;-84
2023/07/12 01:54:06;;;;;;;6.82;4.25;;;18.10;99.90;;;;;;5107137;28;20048;-84
2023/07/12 01:56:32;;;;;;;8.90;4.35;;;17.80;99.90;;;;;;5078410;28;20024;-84
2023/07/12 01:59:06;;;;;;;10.40;4.65;;;18.00;99.90;;;;;;5078461;28;20048;-83
2023/07/12 02:01:35;;;;;;;12.63;5.15;;;18.00;99.90;;;;;;5113003;28;20126;-84
2023/07/12 02:04:01;;;;;;;9.20;4.70;;;18.00;99.90;;;;;;5111121;28;20084;-83
2023/07/12 02:06:44;;;;;;;11.60;4.90;;;18.80;99.90;;;;;;5127412;28;20045;-83
2023/07/12 02:09:15;;;;;;;10.38;4.60;;;17.90;99.90;;;;;;5160401;27;20090;-84
2023/07/12 02:11:44;;;;;;;12.23;4.75;;;17.90;99.90;;;;;;5095079;28;20111;-84
2023/07/12 02:14:21;;;;;;;11.77;4.93;;;17.90;99.90;;;;;;5105629;28;20044;-84
2023/07/12 02:16:47;;;;;;;12.65;5.15;;;17.80;99.90;;;;;;5108541;28;20073;-84
2023/07/12 02:19:23;;;;;;;9.70;5.03;;;17.80;99.90;;;;;;5090160;28;20062;-84
2023/07/12 02:21:55;;;;;;;12.23;5.05;;;17.80;99.90;;;;;;5111280;28;20074;-84
2023/07/12 02:24:32;;;;;;;9.82;5.13;;;17.80;99.90;;;;;;5142368;27;20034;-84
2023/07/12 02:27:11;;;;;;;12.85;4.65;;;18.00;99.90;;;;;;5134069;27;20039;-84
2023/07/12 02:29:44;;;;;;;11.75;5.18;;;17.70;99.90;;;;;;5093423;28;20346;-85
2023/07/12 02:32:15;;;;;;;9.45;5.35;;;17.70;99.90;;;;;;5117687;28;20047;-84
2023/07/12 02:34:47;;;;;;;12.90;5.30;;;17.70;99.90;;;;;;5131442;27;20043;-85
2023/07/12 02:37:19;;;;;;;12.05;5.15;;;17.70;99.90;;;;;;5126251;27;20043;-85
2023/07/12 02:39:50;;;;;;;12.07;4.72;;;17.80;99.90;;;;;;5125163;28;20353;-85
2023/07/12 02:42:16;;;;;;;14.40;5.47;;;17.70;99.90;;;;;;5131953;27;20100;-85
2023/07/12 02:44:42;;;;;;;14.38;5.32;;;17.70;99.90;;;;;;5115567;28;20062;-85
2023/07/12 02:47:20;;;;;;;16.52;5.63;;;17.40;99.90;;;;;;5116896;27;20034;-85
2023/07/12 02:49:57;;;;;;;14.57;5.97;;;17.60;99.90;;;;;;5137351;27;20039;-85
2023/07/12 02:52:33;;;;;;;12.95;5.05;;;17.50;99.90;;;;;;5096411;27;20068;-85
2023/07/12 02:55:18;;;;;;;14.88;5.47;;;18.30;99.90;;;;;;5107806;28;20546;-85
2023/07/12 02:58:15;;;;;;;12.95;5.78;;;17.60;99.90;;;;;;5128707;27;20027;-85
2023/07/12 03:00:57;;;;;;;14.43;4.88;;;17.60;99.90;;;;;;5173274;27;20038;-87
2023/07/12 03:03:46;;;;;;;13.85;6.05;;;17.60;99.90;;;;;;5143206;27;20050;-85
2023/07/12 03:06:12;;;;;;;19.48;6.35;;;17.50;99.90;;;;;;5170884;22;20046;-79
2023/07/12 03:08:38;;;;;;;13.02;5.50;;;17.50;99.90;;;;;;5116509;28;20044;-81
2023/07/12 03:11:06;;;;;;;16.40;5.45;;;17.50;99.90;;;;;;5116901;28;20036;-81
2023/07/12 03:13:32;;;;;;;;;;;17.40;99.90;;;;;;5086612;28;20051;-79
2023/07/12 03:16:05;;;;;;;16.87;5.57;;;17.40;99.90;;;;;;5109842;28;19951;-80
2023/07/12 03:18:31;;;;;;;14.45;6.32;;;17.40;99.90;;;;;;5097374;28;20302;-79
2023/07/12 03:21:01;;;;;;;16.73;5.30;;;17.40;99.90;;;;;;5101684;28;20039;-80
2023/07/12 03:23:30;;;;;;;15.25;5.75;;;17.40;99.90;;;;;;5109118;28;20067;-79
2023/07/12 03:25:55;;;;;;;15.77;5.97;;;17.30;99.90;;;;;;5078483;28;20040;-78
2023/07/12 03:28:21;;;;;;;17.17;6.32;;;17.40;99.90;;;;;;5102085;28;20051;-79
2023/07/12 03:31:01;;;;;;;10.02;4.63;;;17.40;99.90;;;;;;5118637;28;20039;-79
2023/07/12 03:33:28;;;;;;;17.75;5.85;;;17.40;99.90;;;;;;5119771;28;20048;-78
2023/07/12 03:35:53;;;;;;;12.73;5.72;;;17.30;99.90;;;;;;5120047;28;20039;-79
2023/07/12 03:38:20;;;;;;;14.10;5.40;;;17.30;99.90;;;;;;5116150;28;20046;-78
2023/07/12 03:40:46;;;;;;;18.35;5.93;;;17.30;99.90;;;;;;5102720;28;20361;-78
2023/07/12 03:43:13;;;;;;;16.98;6.15;;;17.30;99.90;;;;;;5122191;27;20044;-78
2023/07/12 03:45:42;;;;;;;16.30;6.17;;;17.30;99.90;;;;;;5109993;28;20076;-78
2023/07/12 03:48:07;;;;;;;22.73;6.30;;;17.30;99.90;;;;;;5116520;28;20032;-79
2023/07/12 03:50:33;;;;;;;18.02;5.75;;;17.30;99.90;;;;;;5119316;28;20108;-78
2023/07/12 03:52:59;;;;;;;19.90;6.18;;;17.30;99.90;;;;;;5100774;28;20035;-79
2023/07/12 03:55:24;;;;;;;15.38;5.50;;;17.30;99.90;;;;;;5100357;28;20036;-80
2023/07/12 03:57:50;;;;;;;22.80;5.85;;;17.30;99.90;;;;;;5120441;28;20092;-78
2023/07/12 04:00:16;;;;;;;16.27;5.03;;;17.30;99.90;;;;;;5114989;28;20139;-80
2023/07/12 04:02:41;;;;;;;18.73;5.35;;;17.30;99.90;;;;;;5116656;28;20040;-77
2023/07/12 04:05:07;;;;;;;15.82;5.68;;;17.30;99.90;;;;;;5120100;28;20438;-82
2023/07/12 04:07:32;;;;;;;22.15;6.07;;;17.30;99.90;;;;;;5100428;28;20044;-79
2023/07/12 04:09:58;;;;;;;24.45;6.22;;;17.30;99.90;;;;;;5119247;28;20044;-80
2023/07/12 04:12:24;;;;;;;17.50;5.65;;;17.30;99.90;;;;;;5119649;28;20043;-79
2023/07/12 04:14:49;;;;;;;20.10;5.72;;;17.30;99.90;;;;;;5110666;28;20401;-78
2023/07/12 04:17:15;;;;;;;19.02;6.00;;;17.30;99.90;;;;;;5106685;28;20051;-79
2023/07/12 04:19:41;;;;;;;18.15;6.32;;;17.20;99.90;;;;;;5110135;28;20082;-79
2023/07/12 04:22:07;;;;;;;23.63;5.85;;;17.30;99.90;;;;;;5091864;28;20049;-78
2023/07/12 04:24:33;;;;;;;19.38;6.43;;;17.30;99.90;;;;;;5110340;28;20032;-79
2023/07/12 04:26:59;;;;;;;21.13;6.03;;;17.30;99.90;;;;;;5111305;28;20086;-79
2023/07/12 04:29:28;;;;;;;19.15;6.72;;;17.30;99.90;;;;;;5119117;28;20161;-79
2023/07/12 04:31:54;;;;;;;18.63;6.07;;;17.30;99.90;;;;;;5116227;28;20028;-79
2023/07/12 04:34:19;;;;;;;17.55;6.10;;;17.30;99.90;;;;;;5100494;28;20050;-79
2023/07/12 04:36:45;;;;;;;20.77;5.80;;;17.30;99.90;;;;;;5118290;28;20497;-78
2023/07/12 04:39:11;;;;;;;20.15;5.30;;;17.30;99.90;;;;;;5083498;28;20398;-79
2023/07/12 04:41:37;;;;;;;20.60;6.13;;;17.30;99.90;;;;;;5124425;28;20043;-79
2023/07/12 04:44:02;;;;;;;16.45;5.68;;;17.30;99.90;;;;;;5123635;28;20087;-78
2023/07/12 04:46:28;;;;;;;14.50;5.75;;;17.30;99.90;;;;;;5120488;28;20047;-79
2023/07/12 04:48:54;;;;;;;23.42;6.40;;;17.30;99.90;;;;;;5117753;28;20043;-79
2023/07/12 04:51:20;;;;;;;24.85;6.97;;;17.30;99.90;;;;;;5100896;28;20042;-79
2023/07/12 04:53:49;;;;;;;22.80;6.25;;;17.20;99.90;;;;;;5120430;28;20120;-79
2023/07/12 04:56:15;;;;;;;21.70;5.78;;;17.20;99.90;;;;;;5102391;28;20051;-79
2023/07/12 04:58:42;;;;;;;21.70;6.28;;;17.20;99.90;;;;;;5118441;28;20051;-78
2023/07/12 05:01:09;;;;;;;17.98;6.13;;;17.20;99.90;;;;;;5117811;28;20036;-79
2023/07/12 05:03:35;;;;;;;24.90;6.47;;;17.20;99.90;;;;;;5097108;28;20048;-78
2023/07/12 05:06:01;;;;;;;19.38;6.13;;;17.20;99.90;;;;;;5117527;28;20051;-78
2023/07/12 05:08:26;;;;;;;20.08;6.65;;;17.30;99.90;;;;;;5102581;28;20048;-79
2023/07/12 05:10:58;;;;;;;21.70;7.80;;;17.30;99.90;;;;;;5121172;28;20397;-78
2023/07/12 05:13:23;;;;;;;24.30;7.70;;;17.30;99.90;;;;;;5086910;28;20039;-78
2023/07/12 05:15:53;;;;;;;22.30;7.10;;;17.30;99.90;;;;;;5110941;28;20058;-79
2023/07/12 05:18:19;;;;;;;24.48;7.28;;;17.40;99.90;;;;;;5109777;28;20490;-78
2023/07/12 05:20:45;;;;;;;24.38;7.25;;;17.40;99.90;;;;;;5062099;28;20040;-79
2023/07/12 05:23:12;;;;;;;24.13;7.47;;;17.50;99.90;;;;;;5108265;28;20044;-81
2023/07/12 05:25:37;;;;;;;22.20;7.18;;;17.50;99.90;;;;;;5097330;28;20079;-78
2023/07/12 05:28:06;;;;;;;21.83;7.28;;;17.60;99.90;;;;;;5108414;28;20405;-79
2023/07/12 05:30:32;;;;;;;22.58;7.55;;;17.60;99.90;;;;;;5111441;28;20042;-78
2023/07/12 05:32:58;;;;;;;17.95;7.10;;;17.60;99.90;;;;;;5107497;28;20043;-77
2023/07/12 05:35:24;;;;;;;17.92;6.53;;;17.50;99.90;;;;;;5105586;28;20067;-78
2023/07/12 05:37:50;;;;;;;20.42;6.57;;;17.60;99.90;;;;;;5098867;28;20043;-79
2023/07/12 05:40:16;;;;;;;19.30;7.10;;;17.60;99.90;;;;;;5112470;28;20076;-79
2023/07/12 05:42:41;;;;;;;19.35;6.50;;;17.70;99.90;;;;;;5115239;28;20123;-78
2023/07/12 05:45:13;;;;;;;33.13;6.82;;;17.80;99.90;;;;;;5117683;28;20046;-79
2023/07/12 05:47:42;;;;;;;23.50;6.50;;;17.80;99.90;;;;;;5104056;28;20043;-79
2023/07/12 05:50:11;;;;;;;20.60;6.22;;;17.90;99.90;;;;;;5096178;28;20044;-78
2023/07/12 05:52:37;;;;;;;22.63;6.72;;;17.90;99.90;;;;;;5116348;28;20452;-78
2023/07/12 05:55:07;;;;;;;20.52;6.30;;;18.00;99.90;;;;;;5118665;28;20047;-79
2023/07/12 05:57:35;;;;;;;18.45;5.70;;;18.10;99.90;;;;;;5081724;28;20043;-79
2023/07/12 06:00:01;;;;;;;21.33;6.53;;;18.10;99.90;;;;;;5079238;28;20051;-79
2023/07/12 06:02:27;;;;;;;21.67;5.90;;;18.00;99.90;;;;;;5120044;28;20043;-79
2023/07/12 06:04:53;;;;;;;19.42;5.93;;;18.00;99.90;;;;;;5121088;28;20481;-78
2023/07/12 06:07:18;;;;;;;18.80;6.18;;;17.90;99.90;;;;;;5115247;28;20052;-78
2023/07/12 06:09:44;;;;;;;23.55;6.55;;;17.90;99.90;;;;;;5092263;28;20489;-78
2023/07/12 06:12:10;;;;;;;23.23;6.72;;;17.80;99.90;;;;;;5107390;28;20032;-79
2023/07/12 06:14:36;;;;;;;15.38;5.40;;;17.80;99.90;;;;;;5108949;28;20048;-79
2023/07/12 06:17:02;;;;;;;27.85;6.47;;;17.70;99.90;;;;;;5098491;28;20040;-79
2023/07/12 06:19:27;;;;;;;21.75;7.15;;;17.80;99.90;;;;;;5118659;28;20426;-80
2023/07/12 06:21:53;;;;;;;20.95;6.00;;;17.90;99.90;;;;;;5087900;28;20039;-79
2023/07/12 06:24:19;;;;;;;13.75;5.78;;;17.90;99.90;;;;;;5111875;28;20374;-78
2023/07/12 06:26:45;;;;;;;17.23;5.78;;;18.00;99.90;;;;;;5114858;28;20032;-80
2023/07/12 06:29:10;;;;;;;17.20;6.50;;;18.10;99.90;;;;;;5112780;28;20046;-79
2023/07/12 06:31:36;;;;;;;15.80;6.00;;;18.10;99.90;;;;;;5110478;28;20099;-78
2023/07/12 06:34:03;;;;;;;19.15;6.80;;;18.10;99.90;;;;;;5093734;28;20184;-78
2023/07/12 06:36:33;;;;;;;19.83;6.38;;;18.20;99.90;;;;;;5110026;28;20086;-78
2023/07/12 06:38:59;;;;;;;22.80;7.15;;;18.30;99.90;;;;;;5112992;28;20142;-79
2023/07/12 06:41:24;;;;;;;25.60;6.53;;;18.40;99.90;;;;;;5100569;28;20071;-78
2023/07/12 06:43:50;;;;;;;22.08;6.95;;;18.60;99.90;;;;;;5119847;28;20509;-78
2023/07/12 06:46:16;;;;;;;20.92;6.32;;;18.60;99.90;;;;;;5119714;28;20040;-79
2023/07/12 06:48:42;;;;;;;20.30;6.88;;;18.70;99.90;;;;;;5117909;28;20035;-79
2023/07/12 06:51:08;;;;;;;15.27;6.28;;;18.80;99.90;;;;;;5119708;28;20043;-77
2023/07/12 06:53:33;;;;;;;18.05;6.50;;;18.80;99.90;;;;;;5091999;28;20036;-78
2023/07/12 06:55:59;;;;;;;17.65;6.60;;;18.80;99.90;;;;;;5106150;28;20039;-78
2023/07/12 06:58:28;;;;;;;22.42;6.70;;;18.80;99.90;;;;;;5115596;28;20036;-78
2023/07/12 07:00:53;;;;;;;22.02;6.47;;;18.90;99.90;;;;;;5113444;28;20050;-78
2023/07/12 07:03:20;;;;;;;20.25;6.53;;;19.00;99.90;;;;;;5115184;28;20040;-78
2023/07/12 07:05:47;;;;;;;13.23;6.33;;;19.10;99.90;;;;;;5078901;28;20057;-79
2023/07/12 07:08:16;;;;;;;19.50;6.40;;;19.20;99.90;;;;;;5115367;28;20088;-78
2023/07/12 07:10:47;;;;;;;16.92;5.90;;;19.30;99.90;;;;;;5113732;28;20130;-78
2023/07/12 07:13:13;;;;;;;16.42;5.57;;;19.40;99.90;;;;;;5115980;28;20044;-78
2023/07/12 07:15:38;;;;;;;15.48;5.28;;;19.60;99.90;;;;;;5100071;28;20043;-77
2023/07/12 07:18:04;;;;;;;16.45;4.88;;;19.80;99.90;;;;;;5119050;28;20619;-78
2023/07/12 07:20:30;;;;;;;22.67;5.60;;;19.90;99.90;;;;;;5117908;28;20037;-78
2023/07/12 07:22:55;;;;;;;17.92;5.43;;;20.00;99.90;;;;;;5118582;28;20066;-78
2023/07/12 07:25:22;;;;;;;13.65;4.43;;;20.10;99.90;;;;;;5100399;28;20087;-78
2023/07/12 07:27:48;;;;;;;16.45;4.75;;;20.30;99.90;;;;;;5119323;28;20439;-78
2023/07/12 07:30:14;;;;;;;17.35;4.68;;;20.30;99.90;;;;;;5101202;28;20035;-79
2023/07/12 07:32:40;;;;;;;22.77;5.30;;;20.30;99.90;;;;;;5120622;28;20042;-78
2023/07/12 07:35:06;;;;;;;20.63;4.60;;;20.20;99.90;;;;;;5120391;28;20047;-78
2023/07/12 07:37:32;;;;;;;15.05;4.25;;;20.10;99.90;;;;;;5087176;28;20040;-79
2023/07/12 07:39:57;;;;;;;15.50;4.63;;;20.10;99.90;;;;;;5124668;27;20111;-78
2023/07/12 07:42:23;;;;;;;20.00;5.10;;;20.00;99.90;;;;;;5119395;28;20520;-78
2023/07/12 07:44:49;;;;;;;19.08;5.22;;;20.00;99.90;;;;;;5100842;28;20067;-78
2023/07/12 07:47:15;;;;;;;13.90;4.13;;;20.10;99.90;;;;;;5098764;28;20050;-78
2023/07/12 07:49:41;;;;;;;16.63;4.32;;;20.10;99.90;;;;;;5119104;28;20488;-79
2023/07/12 07:52:07;;;;;;;14.20;4.13;;;20.20;99.90;;;;;;5121120;28;20040;-78
2023/07/12 07:54:32;;;;;;;19.20;5.30;;;20.20;99.90;;;;;;5121712;28;20039;-79
2023/07/12 07:56:58;;;;;;;15.15;4.78;;;20.20;99.90;;;;;;5100702;28;20050;-80
2023/07/12 07:59:26;;;;;;;15.63;4.38;;;20.30;99.90;;;;;;5113991;28;20106;-79
2023/07/12 08:01:52;;;;;;;11.55;3.70;;;20.20;99.90;;;;;;5096296;28;20055;-79
2023/07/12 08:04:18;;;;;;;13.45;3.78;;;20.20;99.90;;;;;;5122196;28;20043;-77
2023/07/12 08:06:43;;;;;;;16.55;4.55;;;20.10;99.90;;;;;;5111679;28;20040;-79
2023/07/12 08:09:09;;;;;;;13.13;3.20;;;20.00;99.90;;;;;;5101076;28;20040;-78
2023/07/12 08:11:35;;;;;;;10.80;3.10;;;19.90;99.90;;;;;;5092322;28;20253;-78
2023/07/12 08:14:01;;;;;;;11.75;3.63;;;19.80;99.90;;;;;;5096082;28;20024;-78
2023/07/12 08:16:29;;;;;;;9.88;2.70;;;19.80;99.90;;;;;;5119063;28;20409;-78
2023/07/12 08:18:55;;;;;;;10.68;2.83;;;19.70;99.90;;;;;;5097362;28;20051;-77
2023/07/12 08:21:21;;;;;;;9.45;3.15;;;19.70;99.90;;;;;;5112621;28;20477;-79
2023/07/12 08:23:47;;;;;;;12.73;3.92;;;19.70;99.90;;;;;;5116650;28;20038;-79
2023/07/12 08:26:14;;;;;;;11.27;3.72;;;19.70;99.90;;;;;;5097938;28;20036;-80
2023/07/12 08:28:40;;;;;;;14.10;3.65;;;19.60;99.90;;;;;;5090523;28;20047;-79
2023/07/12 08:31:05;;;;;;;8.73;2.92;;;19.40;99.90;;;;;;5111157;28;20039;-80
2023/07/12 08:33:31;;;;;;;10.50;3.10;;;19.20;99.90;;;;;;5107025;28;20032;-80
2023/07/12 08:35:57;;;;;;;8.20;2.92;;;19.10;99.90;;;;;;5115394;28;20067;-78
2023/07/12 08:38:23;;;;;;;9.63;2.80;;;19.00;99.90;;;;;;5112850;28;20035;-78
2023/07/12 08:40:51;;;;;;;10.07;3.22;;;19.00;99.90;;;;;;5117187;28;20039;-80
2023/07/12 08:43:26;;;;;;;9.18;3.00;;;19.00;99.90;;;;;;5100419;28;20042;-81
2023/07/12 08:45:56;;;;;;;8.20;3.30;;;19.20;99.90;;;;;;5117068;28;20039;-79
2023/07/12 08:48:23;;;;;;;10.32;2.83;;;19.30;99.90;;;;;;5096261;28;20039;-79
2023/07/12 08:50:50;;;;;;;11.45;3.30;;;19.40;99.90;;;;;;5082634;28;20115;-79
2023/07/12 08:53:26;;;;;;;9.02;3.47;;;19.40;99.90;;;;;;5119513;28;20075;-79
2023/07/12 08:55:54;;;;;;;13.30;3.20;;;19.40;99.90;;;;;;5113409;28;20092;-79
2023/07/12 08:58:21;;;;;;;;;;;19.30;99.90;;;;;;5119099;28;20079;-79
2023/07/12 09:00:58;;;;;;;13.57;3.75;;;19.30;99.90;;;;;;5109190;28;19942;-79
2023/07/12 09:03:23;;;;;;;11.57;3.65;;;19.40;99.90;;;;;;5110913;28;20127;-79
2023/07/12 09:05:49;;;;;;;22.17;4.97;;;19.40;99.90;;;;;;5110484;28;20052;-79
2023/07/12 09:08:47;;;;;;;10.52;3.83;;;19.40;99.90;;;;;;5115630;28;20096;-79
2023/07/12 09:11:19;;;;;;;16.08;4.53;;;19.50;99.90;;;;;;5086811;28;20059;-79
2023/07/12 09:13:46;;;;;;;20.25;4.82;;;19.60;99.90;;;;;;5111160;28;20059;-78
2023/07/12 09:16:23;;;;;;;13.15;4.30;;;19.80;99.90;;;;;;5121529;28;20048;-79
2023/07/12 09:18:56;;;;;;;16.33;3.72;;;20.00;99.90;;;;;;5112382;28;20043;-81
2023/07/12 09:21:29;;;;;;;12.07;3.78;;;20.10;99.90;;;;;;5110508;28;20035;-79
2023/07/12 09:24:12;;;;;;;14.27;4.07;;;20.30;99.90;;;;;;5116087;28;20028;-79
2023/07/12 09:26:38;;;;;;;13.40;3.30;;;20.60;99.90;;;;;;5097866;28;20084;-78
2023/07/12 09:29:27;;;;;;;7.68;2.83;;;20.90;99.90;;;;;;5114247;28;20036;-80
2023/07/12 09:31:59;;;;;;;9.30;3.08;;;21.00;99.90;;;;;;5114156;28;20077;-79
2023/07/12 09:34:35;;;;;;;12.82;2.90;;;21.10;99.90;;;;;;5115427;28;20110;-78
2023/07/12 09:37:01;;;;;;;12.23;3.50;;;21.00;99.90;;;;;;5112014;28;20036;-78
2023/07/12 09:39:27;;;;;;;10.90;2.80;;;20.80;99.90;;;;;;5096852;28;20046;-78
2023/07/12 09:42:03;;;;;;;8.18;2.75;;;20.70;99.90;;;;;;5117592;28;20040;-80
2023/07/12 09:44:32;;;;;;;8.13;2.72;;;20.60;99.90;;;;;;5090967;28;20040;-79
2023/07/12 09:47:14;;;;;;;12.93;3.33;;;20.60;99.90;;;;;;5117175;28;20057;-80
2023/07/12 09:50:02;;;;;;;14.07;3.35;;;20.80;99.90;;;;;;5083155;28;20370;-80
2023/07/12 09:52:33;;;;;;;8.50;2.97;;;20.90;99.90;;;;;;5096321;28;20054;-78
2023/07/12 09:55:22;;;;;;;9.75;3.22;;;21.20;99.90;;;;;;5111163;28;20052;-78
2023/07/12 09:57:59;;;;;;;12.82;3.03;;;21.50;99.90;;;;;;5116380;28;20074;-79
2023/07/12 10:00:46;;;;;;;13.95;3.05;;;21.80;99.90;;;;;;5119276;28;20043;-79
2023/07/12 10:03:15;;;;;;;8.82;2.80;;;22.00;99.90;;;;;;5098210;28;20071;-79
2023/07/12 10:06:02;;;;;;;9.02;3.35;;;22.30;99.90;;;;;;5098268;28;20031;-79
2023/07/12 10:09:01;;;;;;;9.70;2.58;;;22.30;99.90;;;;;;5106792;28;20051;-79
2023/07/12 10:11:43;;;;;;;8.35;2.80;;;22.30;99.90;;;;;;5090814;28;20039;-78
2023/07/12 10:14:12;;;;;;;6.80;2.42;;;22.20;99.90;;;;;;5106924;28;20039;-77
2023/07/12 10:16:51;;;;;;;12.02;2.88;;;22.20;99.90;;;;;;5117827;28;20474;-79
2023/07/12 10:19:49;;;;;;;7.97;2.47;;;22.20;99.90;;;;;;5115283;28;20046;-80
2023/07/12 10:22:31;;;;;;;10.60;2.30;;;22.10;99.90;;;;;;5086676;28;20040;-79
2023/07/12 10:24:59;;;;;;;6.70;2.38;;;22.00;99.90;;;;;;5108747;28;20047;-82
2023/07/12 10:27:35;;;;;;;10.55;2.60;;;21.90;99.90;;;;;;5109220;28;20392;-79
2023/07/12 10:30:11;;;;;;;8.50;2.35;;;21.70;99.90;;;;;;5119194;28;20069;-79
2023/07/12 10:32:41;;;;;;;5.13;2.30;;;21.50;99.90;;;;;;5116981;28;20413;-79
2023/07/12 10:35:31;;;;;;;9.30;2.00;;;21.50;99.90;;;;;;5111987;28;20105;-79
2023/07/12 10:38:04;;;;;;;4.05;1.98;;;21.60;99.90;;;;;;5097405;28;20044;-79
2023/07/12 10:40:37;;;;;;;6.28;1.77;;;21.70;99.90;;;;;;5109561;28;20032;-79
2023/07/12 10:43:08;;;;;;;6.75;2.13;;;21.90;99.90;;;;;;5118380;28;20131;-80
2023/07/12 10:45:37;;;;;;;8.90;2.60;;;22.10;99.90;;;;;;5095290;28;20042;-79
2023/07/12 10:48:05;;;;;;;7.38;2.10;;;22.30;99.90;;;;;;5110596;28;20115;-80
2023/07/12 10:50:33;;;;;;;;;;;22.50;99.90;;;;;;5112767;28;20093;-80
2023/07/12 10:53:18;;;;;;;8.37;2.50;;;22.80;99.90;;;;;;5112291;28;19946;-79
2023/07/12 10:56:05;;;;;;;3.47;1.60;;;22.80;99.90;;;;;;5098901;28;20438;-78
2023/07/12 10:58:48;;;;;;;5.30;1.80;;;22.90;99.90;;;;;;5101764;28;20477;-80
2023/07/12 11:01:42;;;;;;;6.97;1.90;;;23.00;99.90;;;;;;5111559;28;20036;-77
2023/07/12 11:04:08;;;;;;;10.07;2.75;;;23.00;99.90;;;;;;5117205;28;20044;-80
2023/07/12 11:06:33;;;;;;;6.53;2.13;;;23.10;99.90;;;;;;5091641;28;20058;-79
2023/07/12 11:08:59;;;;;;;7.40;2.25;;;23.30;99.90;;;;;;5116038;28;20051;-79
2023/07/12 11:11:33;;;;;;;8.95;2.30;;;23.50;99.90;;;;;;5103309;28;20035;-79
2023/07/12 11:14:13;;;;;;;9.95;2.08;;;23.50;99.90;;;;;;5114483;28;20043;-80
2023/07/12 11:16:50;;;;;;;7.15;2.30;;;23.60;99.90;;;;;;5114626;28;20172;-78
2023/07/12 11:19:43;;;;;;;4.80;2.08;;;23.80;99.90;;;;;;5101127;28;20051;-79
2023/07/12 11:22:22;;;;;;;5.68;1.90;;;23.70;99.90;;;;;;5097168;28;20504;-80
2023/07/12 11:24:58;;;;;;;5.93;1.92;;;23.60;99.90;;;;;;5111350;28;20051;-78
2023/07/12 11:27:42;;;;;;;4.63;1.60;;;23.60;99.90;;;;;;5111403;28;20032;-78
2023/07/12 11:30:26;;;;;;;3.78;1.50;;;23.80;99.90;;;;;;5094020;28;20439;-79
2023/07/12 11:33:02;;;;;;;7.25;1.98;;;24.00;99.90;;;;;;5085169;28;20040;-78
2023/07/12 11:35:52;;;;;;;6.00;2.10;;;24.10;99.90;;;;;;5090939;28;20071;-78
2023/07/12 11:38:33;;;;;;;5.28;1.75;;;24.30;99.00;;;;;;5112087;28;20501;-78
2023/07/12 11:41:04;;;;;;;8.57;2.28;;;24.10;99.00;;;;;;5088836;28;20412;-79
2023/07/12 11:43:36;;;;;;;4.95;1.83;;;23.90;99.80;;;;;;5125179;28;20054;-78
2023/07/12 11:46:11;;;;;;;4.75;1.80;;;23.70;98.60;;;;;;5109366;28;20043;-79
2023/07/12 11:48:37;;;;;;;3.45;1.20;;;23.40;98.10;;;;;;5123316;28;20035;-79
2023/07/12 11:51:08;;;;;;;2.72;1.35;;;23.20;97.00;;;;;;5112539;28;20047;-78
2023/07/12 11:53:35;;;;;;;8.77;1.55;;;23.30;98.10;;;;;;5100838;28;20040;-79
2023/07/12 11:56:00;;;;;;;5.55;1.77;;;23.50;98.80;;;;;;5107377;28;20074;-81
2023/07/12 11:58:27;;;;;;;6.88;1.92;;;23.80;98.60;;;;;;5082067;28;20044;-78
2023/07/12 12:00:56;;;;;;;3.33;1.48;;;24.10;99.70;;;;;;5116060;28;20084;-79
2023/07/12 12:03:23;;;;;;;5.82;1.40;;;24.40;98.70;;;;;;5098527;28;20040;-79
2023/07/12 12:05:49;;;;;;;2.55;1.20;;;24.70;98.20;;;;;;5101674;28;20052;-79
2023/07/12 12:08:27;;;;;;;3.22;1.17;;;24.90;97.80;;;;;;5081532;28;20694;-79
2023/07/12 12:10:56;;;;;;;3.47;1.20;;;25.10;97.40;;;;;;5120896;28;20059;-79
2023/07/12 12:13:29;;;;;;;3.80;1.42;;;25.30;97.40;;;;;;5112911;28;20074;-79
2023/07/12 12:16:03;;;;;;;5.22;1.30;;;25.40;93.60;;;;;;5109974;28;20039;-79
2023/07/12 12:18:30;;;;;;;8.82;1.60;;;25.30;92.20;;;;;;5093167;28;20054;-79
2023/07/12 12:21:12;;;;;;;4.75;1.15;;;25.10;92.00;;;;;;5112650;28;20048;-78
2023/07/12 12:23:39;;;;;;;4.45;1.52;;;25.00;91.80;;;;;;5109072;28;20044;-80
2023/07/12 12:26:19;;;;;;;5.78;1.38;;;24.80;91.80;;;;;;5099830;28;20032;-79
2023/07/12 12:28:55;;;;;;;2.38;1.20;;;24.90;91.70;;;;;;5118577;28;20174;-81
2023/07/12 12:31:23;;;;;;;2.70;1.15;;;24.70;91.10;;;;;;5111884;28;20047;-79
2023/07/12 12:34:07;;;;;;;;;;;24.60;91.50;;;;;;5111649;28;20430;-78
2023/07/12 12:36:36;;;;;;;3.03;1.00;;;24.70;92.20;;;;;;5101066;28;19919;-79
2023/07/12 12:39:11;;;;;;;4.07;1.17;;;24.80;91.70;;;;;;5112865;28;20031;-79
2023/07/12 12:41:45;;;;;;;3.47;1.00;;;25.00;91.40;;;;;;5095174;28;20048;-78
2023/07/12 12:44:11;;;;;;;4.38;1.27;;;24.90;91.30;;;;;;5075904;28;20489;-79
2023/07/12 12:46:38;;;;;;;5.70;1.33;;;24.80;91.40;;;;;;5109053;28;20042;-78
2023/07/12 12:49:21;;;;;;;4.55;1.20;;;25.00;92.80;;;;;;5094753;28;20039;-79
2023/07/12 12:51:50;;;;;;;2.47;1.13;;;25.10;92.50;;;;;;5109396;28;20027;-79
2023/07/12 12:54:16;;;;;;;2.50;0.93;;;25.30;92.60;;;;;;5099813;28;20040;-80
2023/07/12 12:56:42;;;;;;;2.92;1.30;;;25.50;92.70;;;;;;5119134;28;20533;-80
2023/07/12 12:59:12;;;;;;;3.47;1.20;;;25.50;90.90;;;;;;5076324;28;20071;-77
2023/07/12 13:01:38;;;;;;;6.40;1.40;;;25.50;91.20;;;;;;5093649;28;20558;-79